Time;durP1;ratioP1;P1;durP2;ratioP2;P2;SDS_P1;SDS_P2;PMS_P1;PMS_P2;Temp;Humidity;BMP_temperature;BMP_pressure;BME280_temperature;BME280_humidity;BME280_pressure;Samples;Min_cycle;Max_cycle;Signal;HPM_P1;HPM_P2
2022/07/30 00:01:12;;;;;;;4.97;4.57;;;;;;;19.49;100.00;99167.66;5058969;28;20588;-78
2022/07/30 00:03:39;;;;;;;4.63;4.17;;;;;;;19.47;100.00;99170.66;5057951;28;20274;-79
2022/07/30 00:06:06;;;;;;;3.90;3.50;;;;;;;19.80;100.00;99166.22;5049963;28;20266;-78
2022/07/30 00:08:33;;;;;;;3.33;3.03;;;;;;;19.81;100.00;99172.47;5055140;28;20228;-78
2022/07/30 00:11:00;;;;;;;3.07;2.87;;;;;;;19.95;100.00;99166.03;5049570;28;20721;-78
2022/07/30 00:13:27;;;;;;;2.80;2.60;;;;;;;19.89;100.00;99158.22;5052394;28;20742;-78
2022/07/30 00:15:53;;;;;;;2.30;2.10;;;;;;;19.99;100.00;99153.47;5051322;28;20694;-79
2022/07/30 00:18:20;;;;;;;2.00;1.80;;;;;;;20.06;100.00;99159.31;5052309;28;20724;-78
2022/07/30 00:20:48;;;;;;;1.60;1.50;;;;;;;20.05;100.00;99151.47;5062143;28;20229;-79
2022/07/30 00:23:14;;;;;;;1.77;1.30;;;;;;;20.13;100.00;99148.91;5053178;28;20744;-78
2022/07/30 00:25:41;;;;;;;1.10;1.10;;;;;;;20.16;100.00;99145.59;5060217;28;20261;-79
2022/07/30 00:28:07;;;;;;;1.03;1.03;;;;;;;20.22;100.00;99146.34;5066900;28;21737;-78
2022/07/30 00:30:34;;;;;;;1.03;1.00;;;;;;;20.23;100.00;99135.16;5056132;28;20323;-79
2022/07/30 00:33:01;;;;;;;2.70;0.80;;;;;;;20.23;100.00;99121.56;5060546;28;20645;-78
2022/07/30 00:35:28;;;;;;;0.80;0.80;;;;;;;20.15;100.00;99126.88;5058559;28;20226;-78
2022/07/30 00:37:55;;;;;;;1.00;0.90;;;;;;;20.22;100.00;99116.41;5056823;28;20323;-78
2022/07/30 00:40:21;;;;;;;0.80;0.70;;;;;;;20.30;100.00;99118.50;5053097;28;20265;-77
2022/07/30 00:42:48;;;;;;;0.80;0.70;;;;;;;20.25;100.00;99128.63;5051610;28;20598;-78
2022/07/30 00:45:16;;;;;;;0.70;0.70;;;;;;;20.17;100.00;99119.22;5056919;28;20858;-78
2022/07/30 00:47:43;;;;;;;0.70;0.70;;;;;;;20.13;100.00;99121.72;5058893;28;20230;-78
2022/07/30 00:50:11;;;;;;;0.70;0.70;;;;;;;20.26;100.00;99122.06;5052489;28;20238;-78
2022/07/30 00:52:38;;;;;;;0.63;0.63;;;;;;;20.23;100.00;99120.75;5057287;28;20279;-78
2022/07/30 00:55:06;;;;;;;0.57;0.50;;;;;;;20.14;100.00;99104.31;5048628;28;20239;-79
2022/07/30 00:57:33;;;;;;;1.27;0.60;;;;;;;20.18;100.00;99126.28;5058435;28;20646;-77
2022/07/30 01:00:00;;;;;;;0.70;0.53;;;;;;;20.14;100.00;99126.06;5059472;28;20226;-78
2022/07/30 01:02:27;;;;;;;1.13;0.70;;;;;;;20.16;100.00;99125.75;5039772;28;20256;-79
2022/07/30 01:04:54;;;;;;;0.50;0.50;;;;;;;20.08;100.00;99112.81;5043018;28;20694;-78
2022/07/30 01:07:20;;;;;;;0.50;0.50;;;;;;;20.02;100.00;99108.53;5040522;28;20231;-79
2022/07/30 01:09:52;;;;;;;0.50;0.50;;;;;;;20.16;100.00;99109.44;5042692;28;20299;-78
2022/07/30 01:12:20;;;;;;;0.93;0.60;;;;;;;20.05;100.00;99106.06;5040227;28;20234;-78
2022/07/30 01:14:47;;;;;;;0.60;0.60;;;;;;;20.01;100.00;99101.50;5041557;28;20241;-77
2022/07/30 01:17:15;;;;;;;1.80;0.63;;;;;;;19.92;100.00;99114.16;5047019;28;20775;-78
2022/07/30 01:19:47;;;;;;;0.80;0.70;;;;;;;20.10;100.00;99114.16;5047620;28;20323;-79
2022/07/30 01:22:23;;;;;;;1.07;0.60;;;;;;;19.85;100.00;99113.69;5049404;28;20228;-78
2022/07/30 01:25:03;;;;;;;0.53;0.50;;;;;;;19.75;100.00;99115.44;5047564;28;20614;-77
2022/07/30 01:27:43;;;;;;;0.73;0.67;;;;;;;19.73;100.00;99119.56;5046485;28;20277;-78
2022/07/30 01:30:13;;;;;;;0.60;0.60;;;;;;;19.69;100.00;99121.25;5026411;28;20250;-78
2022/07/30 01:32:42;;;;;;;0.73;0.70;;;;;;;19.61;100.00;99130.03;5049643;28;20724;-78
2022/07/30 01:35:10;;;;;;;0.77;0.70;;;;;;;19.56;100.00;99125.47;5033341;28;20606;-79
2022/07/30 01:37:38;;;;;;;0.70;0.70;;;;;;;19.48;100.00;99128.00;5030308;28;20229;-78
2022/07/30 01:40:05;;;;;;;0.60;0.60;;;;;;;19.36;100.00;99122.97;5045050;28;20227;-78
2022/07/30 01:42:33;;;;;;;0.83;0.83;;;;;;;19.38;100.00;99122.66;5049697;28;20227;-80
2022/07/30 01:45:00;;;;;;;0.80;0.80;;;;;;;19.38;100.00;99120.75;5032640;28;20278;-78
2022/07/30 01:47:28;;;;;;;0.70;0.70;;;;;;;19.30;100.00;99124.13;5028884;28;20233;-78
2022/07/30 01:49:56;;;;;;;0.90;0.90;;;;;;;19.42;100.00;99132.66;5033091;28;20453;-78
2022/07/30 01:52:23;;;;;;;0.70;0.70;;;;;;;19.35;100.00;99129.50;5030945;28;20231;-78
2022/07/30 01:54:53;;;;;;;0.90;0.90;;;;;;;19.46;100.00;99131.00;5031989;28;20750;-78
2022/07/30 01:57:20;;;;;;;0.97;0.70;;;;;;;19.33;100.00;99127.06;5031693;28;20314;-78
2022/07/30 01:59:50;;;;;;;0.93;0.90;;;;;;;19.26;100.00;99128.50;5025883;28;20235;-78
2022/07/30 02:02:18;;;;;;;0.77;0.77;;;;;;;19.35;100.00;99133.03;5025047;28;20238;-78
2022/07/30 02:04:45;;;;;;;0.93;0.90;;;;;;;19.20;100.00;99130.47;5041887;28;20253;-78
2022/07/30 02:07:16;;;;;;;0.80;0.80;;;;;;;19.22;100.00;99117.38;5043911;28;20233;-78
2022/07/30 02:09:51;;;;;;;0.80;0.80;;;;;;;19.21;100.00;99113.09;5042456;28;20227;-78
2022/07/30 02:12:28;;;;;;;3.30;1.30;;;;;;;19.14;100.00;99114.50;5024094;28;22911;-80
2022/07/30 02:15:03;;;;;;;0.93;0.93;;;;;;;19.06;100.00;99112.41;5049243;28;20713;-78
2022/07/30 02:17:36;;;;;;;0.90;0.90;;;;;;;19.20;100.00;99116.88;5049035;28;20229;-78
2022/07/30 02:20:11;;;;;;;1.00;0.90;;;;;;;19.19;100.00;99117.97;5045932;28;20282;-78
2022/07/30 02:22:43;;;;;;;0.77;0.77;;;;;;;19.06;100.00;99105.09;5029570;28;20230;-81
2022/07/30 02:25:13;;;;;;;1.10;1.00;;;;;;;19.08;100.00;99102.09;5032133;28;20700;-78
2022/07/30 02:27:42;;;;;;;1.10;1.00;;;;;;;19.23;100.00;99116.31;5049682;28;20228;-78
2022/07/30 02:30:09;;;;;;;1.10;1.00;;;;;;;19.27;100.00;99125.47;5045458;28;20722;-78
2022/07/30 02:32:39;;;;;;;0.90;0.90;;;;;;;19.11;100.00;99125.94;5047313;28;20240;-78
2022/07/30 02:35:14;;;;;;;1.50;1.00;;;;;;;19.08;100.00;99123.81;5029124;28;20321;-78
2022/07/30 02:37:42;;;;;;;0.93;0.93;;;;;;;19.00;100.00;99122.50;5031963;28;20222;-78
2022/07/30 02:40:13;;;;;;;1.20;1.10;;;;;;;18.88;100.00;99116.69;5047803;28;20226;-78
2022/07/30 02:42:42;;;;;;;1.00;1.00;;;;;;;18.87;100.00;99115.06;5048556;28;20603;-78
2022/07/30 02:45:12;;;;;;;1.50;1.40;;;;;;;18.96;100.00;99110.63;5031931;28;20316;-79
2022/07/30 02:47:40;;;;;;;1.67;1.50;;;;;;;19.10;100.00;99116.19;5042742;28;20235;-79
2022/07/30 02:50:08;;;;;;;2.10;1.70;;;;;;;19.05;100.00;99116.22;5031161;28;20283;-78
2022/07/30 02:52:37;;;;;;;1.90;1.60;;;;;;;19.24;100.00;99128.78;5045624;28;20233;-78
2022/07/30 02:55:04;;;;;;;2.00;1.90;;;;;;;19.22;100.00;99119.31;5044197;28;20315;-78
2022/07/30 02:57:31;;;;;;;2.13;1.93;;;;;;;19.17;100.00;99128.34;5030655;28;20863;-78
2022/07/30 02:59:58;;;;;;;2.10;2.00;;;;;;;19.19;100.00;99138.88;5061415;28;20240;-78
2022/07/30 03:02:26;;;;;;;2.13;1.93;;;;;;;19.25;100.00;99144.00;5030483;28;20324;-79
2022/07/30 03:04:56;;;;;;;2.97;2.03;;;;;;;19.40;100.00;99139.50;5044212;28;20232;-79
2022/07/30 03:07:24;;;;;;;2.57;2.10;;;;;;;19.26;100.00;99148.34;5045565;28;20232;-78
2022/07/30 03:09:51;;;;;;;2.40;2.30;;;;;;;19.42;100.00;99137.28;5047842;28;20243;-79
2022/07/30 03:12:18;;;;;;;2.30;2.20;;;;;;;19.43;100.00;99136.19;5031012;28;20308;-78
2022/07/30 03:14:45;;;;;;;2.80;2.00;;;;;;;19.36;100.00;99131.13;5046403;28;20318;-78
2022/07/30 03:17:14;;;;;;;2.73;2.53;;;;;;;19.43;100.00;99117.97;5047773;28;20256;-79
2022/07/30 03:19:44;;;;;;;2.37;2.17;;;;;;;19.55;100.00;99115.69;5046720;28;20313;-80
2022/07/30 03:22:11;;;;;;;2.77;2.53;;;;;;;19.42;100.00;99110.94;5030537;28;20231;-78
2022/07/30 03:24:39;;;;;;;2.50;2.30;;;;;;;19.31;100.00;99112.16;5031276;28;20323;-78
2022/07/30 03:27:09;;;;;;;3.30;2.60;;;;;;;19.27;100.00;99114.63;5047965;28;20239;-78
2022/07/30 03:29:37;;;;;;;2.97;2.73;;;;;;;19.21;100.00;99118.50;5031078;28;20668;-79
2022/07/30 03:32:05;;;;;;;3.43;2.53;;;;;;;19.10;100.00;99116.19;5047103;28;20229;-78
2022/07/30 03:34:33;;;;;;;3.10;2.90;;;;;;;18.97;100.00;99120.38;5047513;28;20612;-78
2022/07/30 03:37:03;;;;;;;3.63;3.10;;;;;;;18.89;100.00;99121.00;5047238;28;20659;-79
2022/07/30 03:39:36;;;;;;;2.77;2.60;;;;;;;18.93;100.00;99122.06;5031127;28;20303;-78
2022/07/30 03:42:05;;;;;;;2.67;2.47;;;;;;;18.81;100.00;99140.59;5047083;28;20236;-78
2022/07/30 03:44:33;;;;;;;3.20;3.00;;;;;;;18.87;100.00;99147.63;5032132;28;20252;-78
2022/07/30 03:47:03;;;;;;;2.80;2.60;;;;;;;18.68;100.00;99150.22;5030965;28;20763;-78
2022/07/30 03:49:35;;;;;;;3.17;2.97;;;;;;;18.60;100.00;99152.75;5030742;28;20229;-78
2022/07/30 03:52:03;;;;;;;3.10;2.90;;;;;;;18.53;100.00;99146.78;5045313;28;20264;-79
2022/07/30 03:54:34;;;;;;;3.27;3.07;;;;;;;18.55;100.00;99142.72;5047456;28;20231;-79
2022/07/30 03:57:20;;;;;;;3.20;3.00;;;;;;;18.59;100.00;99142.97;5046441;28;20613;-79
2022/07/30 03:59:50;;;;;;;3.20;2.90;;;;;;;18.57;100.00;99148.66;5031475;28;20615;-78
2022/07/30 04:02:19;;;;;;;3.17;2.93;;;;;;;18.49;100.00;99132.97;5047175;28;20306;-78
2022/07/30 04:05:21;;;;;;;3.83;3.10;;;;;;;18.59;100.00;99140.25;5039417;28;20243;-78
2022/07/30 04:07:49;;;;;;;3.40;3.10;;;;;;;18.65;100.00;99144.56;5047631;28;20326;-79
2022/07/30 04:10:18;;;;;;;3.57;3.27;;;;;;;18.49;100.00;99149.25;5048107;28;20314;-78
2022/07/30 04:13:05;;;;;;;3.50;3.30;;;;;;;18.56;100.00;99148.97;5049484;28;20232;-78
2022/07/30 04:16:00;;;;;;;3.40;3.10;;;;;;;18.63;100.00;99141.31;5084839;28;20622;-78
2022/07/30 04:18:50;;;;;;;3.30;3.10;;;;;;;18.61;100.00;99138.91;5020588;28;20236;-79
2022/07/30 04:21:18;;;;;;;3.47;3.20;;;;;;;18.58;100.00;99139.44;5053940;28;20256;-78
2022/07/30 04:23:47;;;;;;;3.53;3.10;;;;;;;18.73;100.00;99143.94;5037894;28;20294;-78
2022/07/30 04:26:34;;;;;;;3.20;3.00;;;;;;;18.71;100.00;99140.72;5063407;28;20280;-80
2022/07/30 04:29:04;;;;;;;3.40;3.20;;;;;;;18.59;100.00;99135.66;5051909;28;20235;-78
2022/07/30 04:31:34;;;;;;;3.40;3.13;;;;;;;18.68;100.00;99142.09;5036198;28;20323;-78
2022/07/30 04:34:26;;;;;;;3.40;3.10;;;;;;;18.78;100.00;99152.84;5052670;28;20727;-78
2022/07/30 04:36:53;;;;;;;3.17;2.97;;;;;;;18.77;100.00;99151.22;5050994;28;20278;-77
2022/07/30 04:39:20;;;;;;;3.37;2.90;;;;;;;18.77;100.00;99159.38;5044072;28;20241;-78
2022/07/30 04:41:46;;;;;;;3.13;2.90;;;;;;;18.79;100.00;99161.81;5053713;28;20237;-78
2022/07/30 04:44:33;;;;;;;3.30;3.10;;;;;;;18.75;100.00;99166.19;5049144;28;20237;-78
2022/07/30 04:47:20;;;;;;;2.97;2.77;;;;;;;18.76;100.00;99171.31;5051527;28;20321;-78
2022/07/30 04:50:03;;;;;;;3.67;2.97;;;;;;;18.83;100.00;99179.13;5046076;28;20665;-76
2022/07/30 04:52:30;;;;;;;3.30;3.00;;;;;;;18.82;100.00;99200.03;5047529;28;20704;-78
2022/07/30 04:55:01;;;;;;;3.43;3.13;;;;;;;18.90;100.00;99195.91;5037053;28;20219;-78
2022/07/30 04:57:30;;;;;;;3.13;2.87;;;;;;;18.90;100.00;99198.59;5030839;28;20238;-78
2022/07/30 04:59:57;;;;;;;3.23;3.03;;;;;;;18.82;100.00;99202.75;5032509;28;20236;-78
2022/07/30 05:02:26;;;;;;;3.37;3.17;;;;;;;18.97;100.00;99211.88;5049592;28;20596;-78
2022/07/30 05:04:53;;;;;;;3.10;2.90;;;;;;;18.92;100.00;99210.81;5051650;28;20603;-80
2022/07/30 05:07:20;;;;;;;2.90;2.70;;;;;;;18.97;100.00;99201.81;5033219;28;20227;-78
2022/07/30 05:09:49;;;;;;;3.23;2.90;;;;;;;19.00;100.00;99222.97;5032601;28;20244;-80
2022/07/30 05:12:15;;;;;;;3.10;2.90;;;;;;;19.01;100.00;99216.44;5046581;28;20289;-78
2022/07/30 05:14:42;;;;;;;3.20;2.90;;;;;;;19.02;100.00;99219.97;5045872;28;20845;-78
2022/07/30 05:17:15;;;;;;;3.03;2.83;;;;;;;19.07;100.00;99230.78;5049654;28;20734;-79
2022/07/30 05:19:42;;;;;;;3.20;3.00;;;;;;;19.04;100.00;99221.28;5049330;28;20239;-78
2022/07/30 05:22:09;;;;;;;2.77;2.57;;;;;;;19.04;100.00;99226.72;5050232;28;20229;-79
2022/07/30 05:24:36;;;;;;;3.07;2.77;;;;;;;19.12;100.00;99218.00;5050024;28;20225;-78
2022/07/30 05:27:03;;;;;;;2.80;2.60;;;;;;;19.12;100.00;99233.47;5046610;28;20616;-78
2022/07/30 05:29:30;;;;;;;3.87;2.60;;;;;;;19.14;100.00;99229.34;5049682;28;20223;-78
2022/07/30 05:32:07;;;;;;;3.00;2.80;;;;;;;19.01;100.00;99231.91;5049120;28;20247;-79
2022/07/30 05:34:35;;;;;;;3.30;3.03;;;;;;;18.97;100.00;99225.44;5047337;28;20225;-79
2022/07/30 05:37:01;;;;;;;3.10;2.83;;;;;;;18.94;100.00;99226.03;5051917;28;20216;-78
2022/07/30 05:39:30;;;;;;;3.20;3.00;;;;;;;18.97;100.00;99228.97;5049340;28;20241;-78
2022/07/30 05:42:30;;;;;;;3.00;2.80;;;;;;;18.88;100.00;99223.34;5023040;28;20239;-78
2022/07/30 05:44:59;;;;;;;4.63;2.87;;;;;;;18.85;100.00;99226.59;5045841;28;20584;-77
2022/07/30 05:47:25;;;;;;;2.93;2.60;;;;;;;18.79;100.00;99224.22;5042629;28;20713;-78
2022/07/30 05:49:52;;;;;;;2.50;2.30;;;;;;;18.77;100.00;99213.66;5038160;28;20231;-77
2022/07/30 05:52:19;;;;;;;2.63;2.43;;;;;;;18.76;100.00;99217.44;5040265;28;21877;-78
2022/07/30 05:54:46;;;;;;;3.73;2.80;;;;;;;18.75;100.00;99217.75;5040545;28;20233;-78
2022/07/30 05:57:34;;;;;;;2.70;2.47;;;;;;;18.77;100.00;99226.41;5042846;28;20380;-78
2022/07/30 06:00:06;;;;;;;2.80;2.60;;;;;;;18.71;100.00;99227.56;5048639;28;20239;-77
2022/07/30 06:02:51;;;;;;;3.10;2.30;;;;;;;18.79;100.00;99226.94;5046511;28;20284;-78
2022/07/30 06:05:24;;;;;;;2.60;2.33;;;;;;;18.77;100.00;99227.22;5050366;28;20236;-79
2022/07/30 06:07:51;;;;;;;4.03;2.10;;;;;;;18.79;100.00;99241.31;5048878;28;20781;-79
2022/07/30 06:10:21;;;;;;;3.13;1.80;;;;;;;18.80;100.00;99237.50;5048190;28;20304;-79
2022/07/30 06:12:47;;;;;;;2.20;2.10;;;;;;;18.86;100.00;99235.56;5050135;28;20239;-78
2022/07/30 06:15:16;;;;;;;3.60;2.10;;;;;;;18.92;100.00;99231.72;5081199;28;20233;-78
2022/07/30 06:17:52;;;;;;;1.87;1.70;;;;;;;19.07;100.00;99239.75;5041115;28;20322;-79
2022/07/30 06:20:41;;;;;;;2.80;1.90;;;;;;;19.02;100.00;99237.06;5034619;28;20710;-78
2022/07/30 06:23:32;;;;;;;2.77;2.00;;;;;;;19.08;100.00;99243.28;5048566;28;20310;-79
2022/07/30 06:26:11;;;;;;;2.70;1.50;;;;;;;19.16;100.00;99240.75;5043903;28;20242;-79
2022/07/30 06:28:38;;;;;;;2.67;1.83;;;;;;;19.19;100.00;99234.75;5048406;28;20321;-79
2022/07/30 06:31:25;;;;;;;2.00;1.80;;;;;;;19.29;100.00;99231.94;5048635;28;20287;-79
2022/07/30 06:33:52;;;;;;;4.23;1.80;;;;;;;19.37;100.00;99244.09;5044203;28;20229;-79
2022/07/30 06:36:19;;;;;;;2.60;1.63;;;;;;;19.46;100.00;99244.28;5047791;28;20232;-78
2022/07/30 06:39:09;;;;;;;2.60;1.70;;;;;;;19.56;100.00;99245.00;5047389;28;20234;-79
2022/07/30 06:42:03;;;;;;;2.17;1.80;;;;;;;19.66;100.00;99238.66;5028214;28;20313;-78
2022/07/30 06:44:49;;;;;;;1.53;1.43;;;;;;;19.75;100.00;99247.81;5040824;28;20235;-79
2022/07/30 06:47:25;;;;;;;1.80;1.70;;;;;;;19.79;100.00;99244.22;5061240;28;20239;-79
2022/07/30 06:49:52;;;;;;;2.07;1.70;;;;;;;19.85;100.00;99250.41;5040283;28;20707;-82
2022/07/30 06:52:20;;;;;;;1.77;1.67;;;;;;;19.97;100.00;99248.09;5057158;28;20242;-79
2022/07/30 06:54:50;;;;;;;1.60;1.50;;;;;;;20.08;100.00;99244.16;5048514;28;20596;-78
2022/07/30 06:57:27;;;;;;;1.77;1.67;;;;;;;20.12;100.00;99247.91;5047880;28;20259;-80
2022/07/30 06:59:56;;;;;;;1.90;1.77;;;;;;;20.13;100.00;99240.56;5048513;28;20221;-78
2022/07/30 07:02:32;;;;;;;1.60;1.50;;;;;;;20.10;100.00;99250.13;5045637;28;20762;-79
2022/07/30 07:05:06;;;;;;;1.50;1.40;;;;;;;20.15;100.00;99247.34;5048189;28;20315;-78
2022/07/30 07:07:34;;;;;;;1.60;1.33;;;;;;;20.21;100.00;99239.91;5046641;28;20227;-78
2022/07/30 07:10:10;;;;;;;1.67;1.40;;;;;;;20.20;100.00;99243.75;5046202;28;20263;-78
2022/07/30 07:12:56;;;;;;;1.40;1.30;;;;;;;20.02;100.00;99250.75;5048813;28;20340;-78
2022/07/30 07:15:22;;;;;;;2.70;1.40;;;;;;;20.04;100.00;99250.47;5045086;28;20227;-78
2022/07/30 07:18:05;;;;;;;1.70;1.60;;;;;;;20.05;100.00;99250.19;5042316;28;20328;-80
2022/07/30 07:20:35;;;;;;;1.60;1.50;;;;;;;20.02;100.00;99237.16;5045417;28;20234;-79
2022/07/30 07:23:04;;;;;;;1.50;1.40;;;;;;;20.03;100.00;99241.50;5047183;28;20221;-78
2022/07/30 07:25:38;;;;;;;1.67;1.47;;;;;;;20.14;100.00;99236.75;5048332;28;20300;-79
2022/07/30 07:28:06;;;;;;;1.60;1.50;;;;;;;20.20;100.00;99233.66;5040166;28;20636;-79
2022/07/30 07:30:42;;;;;;;1.53;1.43;;;;;;;20.29;100.00;99233.84;5029169;28;20236;-80
2022/07/30 07:33:11;;;;;;;2.43;1.50;;;;;;;20.34;100.00;99233.81;5074420;28;20229;-79
2022/07/30 07:35:39;;;;;;;1.50;1.40;;;;;;;20.36;100.00;99230.78;5029907;28;20259;-82
2022/07/30 07:38:20;;;;;;;1.80;1.37;;;;;;;20.29;100.00;99233.84;5043989;28;20226;-80
2022/07/30 07:40:47;;;;;;;1.47;1.20;;;;;;;20.27;100.00;99230.59;5044119;28;20229;-79
2022/07/30 07:43:14;;;;;;;1.40;1.30;;;;;;;20.35;100.00;99229.16;5048996;28;20232;-79
2022/07/30 07:45:41;;;;;;;1.63;1.40;;;;;;;20.37;100.00;99224.22;5051020;28;20632;-78
2022/07/30 07:48:09;;;;;;;1.00;1.00;;;;;;;20.36;100.00;99220.69;5035869;28;20242;-79
2022/07/30 07:50:56;;;;;;;1.30;1.20;;;;;;;20.47;100.00;99224.91;5049112;28;20344;-78
2022/07/30 07:53:29;;;;;;;1.47;1.37;;;;;;;20.53;100.00;99220.22;5052350;28;20716;-79
2022/07/30 07:55:55;;;;;;;1.33;1.23;;;;;;;20.50;100.00;99220.78;5052227;28;20601;-78
2022/07/30 07:58:23;;;;;;;1.10;1.00;;;;;;;20.63;100.00;99218.13;5083808;28;20254;-78
2022/07/30 08:00:55;;;;;;;1.60;1.33;;;;;;;20.80;100.00;99220.34;5051886;28;20263;-78
2022/07/30 08:03:39;;;;;;;1.40;1.30;;;;;;;20.90;100.00;99222.09;5050358;28;20316;-78
2022/07/30 08:06:24;;;;;;;2.37;1.27;;;;;;;20.81;100.00;99224.66;5049643;28;20243;-79
2022/07/30 08:09:26;;;;;;;1.60;1.37;;;;;;;20.95;100.00;99230.97;5002696;28;20242;-79
2022/07/30 08:12:26;;;;;;;1.70;1.20;;;;;;;21.03;100.00;99224.84;5026543;28;20337;-77
2022/07/30 08:15:11;;;;;;;1.30;1.20;;;;;;;21.16;100.00;99226.03;5030288;28;20242;-80
2022/07/30 08:18:02;;;;;;;1.50;1.10;;;;;;;21.33;100.00;99217.28;5029940;28;20247;-78
2022/07/30 08:20:55;;;;;;;1.40;1.30;;;;;;;21.61;100.00;99218.94;5019446;28;20792;-78
2022/07/30 08:23:27;;;;;;;3.50;1.10;;;;;;;21.72;100.00;99227.75;5045671;28;20229;-78
2022/07/30 08:25:56;;;;;;;1.73;1.30;;;;;;;21.80;100.00;99221.56;5029830;28;20304;-80
2022/07/30 08:28:23;;;;;;;1.38;1.20;;;;;;;22.03;100.00;99214.31;5033633;28;20252;-79
2022/07/30 08:31:03;;;;;;;1.40;1.30;;;;;;;22.05;100.00;99220.28;5060097;28;20313;-78
2022/07/30 08:33:30;;;;;;;1.40;1.30;;;;;;;22.08;100.00;99216.94;5030301;28;20227;-77
2022/07/30 08:35:56;;;;;;;1.60;1.50;;;;;;;22.06;100.00;99217.25;5031771;28;20238;-78
2022/07/30 08:38:29;;;;;;;1.50;1.40;;;;;;;22.07;100.00;99215.34;5031765;28;20628;-78
2022/07/30 08:40:57;;;;;;;2.58;1.50;;;;;;;22.06;100.00;99217.25;5031170;28;20230;-78
2022/07/30 08:43:24;;;;;;;1.70;1.60;;;;;;;22.04;100.00;99224.13;5033728;28;20234;-78
2022/07/30 08:45:55;;;;;;;1.73;1.60;;;;;;;21.97;100.00;99226.47;5030484;28;20579;-78
2022/07/30 08:48:47;;;;;;;1.50;1.40;;;;;;;21.76;100.00;99220.56;5039851;28;20238;-78
2022/07/30 08:51:18;;;;;;;3.10;1.83;;;;;;;21.65;100.00;99221.88;5023600;28;20284;-78
2022/07/30 08:54:15;;;;;;;4.18;1.80;;;;;;;21.59;100.00;99225.81;5031574;28;20300;-81
2022/07/30 08:56:43;;;;;;;2.85;2.00;;;;;;;21.56;100.00;99219.03;5049371;28;20253;-81
2022/07/30 08:59:11;;;;;;;3.60;1.90;;;;;;;21.51;100.00;99219.13;5030430;28;20278;-78
2022/07/30 09:01:40;;;;;;;1.90;1.80;;;;;;;21.43;100.00;99223.34;5015363;28;20608;-81
2022/07/30 09:04:09;;;;;;;1.85;1.75;;;;;;;21.26;100.00;99219.59;5015226;28;20233;-81
2022/07/30 09:06:41;;;;;;;2.40;2.20;;;;;;;21.37;100.00;99223.78;5034112;28;20236;-80
2022/07/30 09:09:09;;;;;;;2.20;2.10;;;;;;;21.38;100.00;99222.63;5040929;28;20227;-80
2022/07/30 09:11:40;;;;;;;2.45;2.20;;;;;;;21.31;100.00;99217.59;5050744;28;20237;-79
2022/07/30 09:14:14;;;;;;;3.30;2.40;;;;;;;21.37;100.00;99215.59;5043186;28;20236;-80
2022/07/30 09:16:44;;;;;;;2.63;2.42;;;;;;;21.43;100.00;99219.81;5085259;28;20224;-79
2022/07/30 09:19:17;;;;;;;2.40;2.20;;;;;;;21.31;100.00;99228.50;5055714;28;20316;-80
2022/07/30 09:22:01;;;;;;;2.83;2.42;;;;;;;21.31;100.00;99223.03;5051497;28;20234;-79
2022/07/30 09:24:46;;;;;;;2.60;2.40;;;;;;;21.52;100.00;99223.47;5033077;28;21151;-79
2022/07/30 09:27:51;;;;;;;3.07;2.73;;;;;;;21.56;100.00;99218.25;4990687;28;20235;-79
2022/07/30 09:30:52;;;;;;;2.77;2.57;;;;;;;22.00;100.00;99214.94;4969761;28;20281;-79
2022/07/30 09:33:58;;;;;;;3.08;2.88;;;;;;;22.50;100.00;99210.28;4986933;28;20706;-79
2022/07/30 09:36:42;;;;;;;2.92;2.72;;;;;;;22.62;100.00;99207.84;5010578;28;20231;-78
2022/07/30 09:39:40;;;;;;;3.08;2.88;;;;;;;22.75;100.00;99204.28;5042122;28;20225;-79
2022/07/30 09:42:19;;;;;;;3.25;2.95;;;;;;;22.98;100.00;99205.91;5050714;28;20229;-78
2022/07/30 09:44:47;;;;;;;3.05;2.78;;;;;;;23.09;100.00;99201.00;5056840;28;20260;-79
2022/07/30 09:47:31;;;;;;;2.90;2.70;;;;;;;22.70;100.00;99193.47;5057634;28;20768;-79
2022/07/30 09:50:07;;;;;;;3.45;3.17;;;;;;;22.73;100.00;99198.31;5053790;28;20240;-79
2022/07/30 09:52:34;;;;;;;3.60;3.30;;;;;;;23.05;100.00;99195.31;5050693;28;20233;-79
2022/07/30 09:55:10;;;;;;;3.47;3.17;;;;;;;23.10;100.00;99191.66;5036085;28;20306;-79
2022/07/30 09:57:55;;;;;;;4.10;3.55;;;;;;;23.27;100.00;99186.31;5049248;28;20287;-80
2022/07/30 10:00:27;;;;;;;3.33;3.13;;;;;;;23.84;100.00;99195.44;5025572;28;20295;-78
2022/07/30 10:03:20;;;;;;;3.65;3.35;;;;;;;24.07;100.00;99190.66;5034399;28;20990;-78
2022/07/30 10:06:42;;;;;;;3.95;3.55;;;;;;;24.23;100.00;99191.84;5039885;28;20233;-79
2022/07/30 10:09:31;;;;;;;3.83;3.53;;;;;;;24.29;100.00;99189.75;5013494;28;20238;-79
2022/07/30 10:12:04;;;;;;;3.80;3.50;;;;;;;24.54;100.00;99197.97;5053648;28;20308;-79
2022/07/30 10:14:41;;;;;;;3.88;3.60;;;;;;;24.77;100.00;99195.91;5054607;28;20336;-78
2022/07/30 10:17:11;;;;;;;4.15;3.85;;;;;;;24.99;100.00;99192.19;5036421;28;20244;-79
2022/07/30 10:19:40;;;;;;;3.95;3.65;;;;;;;25.25;100.00;99203.91;5031483;28;20238;-77
2022/07/30 10:22:26;;;;;;;4.20;3.90;;;;;;;25.30;100.00;99195.50;5047495;28;20243;-78
2022/07/30 10:25:24;;;;;;;4.07;3.88;;;;;;;25.85;100.00;99191.94;5040198;28;20241;-78
2022/07/30 10:28:13;;;;;;;3.97;3.67;;;;;;;26.34;99.99;99193.13;5070903;28;20224;-77
2022/07/30 10:30:42;;;;;;;4.30;3.90;;;;;;;26.03;99.79;99185.22;5044359;28;21250;-78
2022/07/30 10:33:11;;;;;;;3.95;3.65;;;;;;;26.70;89.20;99179.56;5038235;28;20218;-80
2022/07/30 10:35:57;;;;;;;4.32;3.97;;;;;;;27.04;80.19;99186.72;5048626;28;20286;-80
2022/07/30 10:38:29;;;;;;;4.25;3.95;;;;;;;27.37;79.62;99177.66;5046898;28;20308;-79
2022/07/30 10:41:05;;;;;;;4.68;4.28;;;;;;;27.22;80.94;99181.84;5045276;28;20322;-79
2022/07/30 10:43:55;;;;;;;4.45;4.05;;;;;;;27.45;77.17;99180.28;5048657;28;20236;-78
2022/07/30 10:46:48;;;;;;;4.63;4.22;;;;;;;27.09;76.85;99181.03;5047853;28;20235;-78
2022/07/30 10:49:17;;;;;;;4.43;4.10;;;;;;;26.90;79.46;99169.72;5046118;28;20237;-78
2022/07/30 10:51:53;;;;;;;4.60;4.20;;;;;;;27.05;80.64;99177.34;5045658;28;20244;-78
2022/07/30 10:54:40;;;;;;;4.82;4.43;;;;;;;27.06;76.33;99181.69;5048363;28;20259;-79
2022/07/30 10:57:13;;;;;;;5.20;4.80;;;;;;;27.32;73.67;99167.66;5047552;28;20233;-78
2022/07/30 10:59:48;;;;;;;4.28;3.97;;;;;;;27.88;70.04;99173.47;5047522;28;20236;-78
2022/07/30 11:02:17;;;;;;;4.15;3.85;;;;;;;28.59;72.94;99170.16;5045256;28;20236;-79
2022/07/30 11:04:45;;;;;;;4.30;4.00;;;;;;;29.34;60.31;99170.31;5032048;28;20647;-78
2022/07/30 11:07:21;;;;;;;4.43;4.07;;;;;;;29.53;56.77;99170.41;5049765;28;20240;-79
2022/07/30 11:09:59;;;;;;;4.13;3.83;;;;;;;29.44;57.70;99173.34;5047849;28;20228;-80
2022/07/30 11:12:40;;;;;;;4.20;3.90;;;;;;;29.31;56.73;99177.31;5037791;28;20632;-82
2022/07/30 11:15:11;;;;;;;3.92;3.63;;;;;;;29.52;53.35;99169.59;5043815;28;20279;-79
2022/07/30 11:18:03;;;;;;;4.45;4.07;;;;;;;29.25;53.99;99168.50;5046635;28;20237;-81
2022/07/30 11:20:38;;;;;;;4.68;4.28;;;;;;;28.71;58.33;99167.38;5042732;28;20685;-79
2022/07/30 11:23:28;;;;;;;3.97;3.78;;;;;;;28.81;58.40;99161.34;5042200;28;20734;-81
2022/07/30 11:26:00;;;;;;;3.97;3.70;;;;;;;28.64;59.47;99164.41;5042479;28;20229;-77
2022/07/30 11:28:34;;;;;;;4.20;3.88;;;;;;;28.88;57.64;99150.53;5044904;28;20328;-78
2022/07/30 11:31:01;;;;;;;4.07;3.78;;;;;;;28.84;58.47;99153.19;5043148;28;20663;-79
2022/07/30 11:33:36;;;;;;;3.30;3.10;;;;;;;28.69;57.91;99164.16;5045381;28;20304;-79
2022/07/30 11:36:10;;;;;;;4.00;3.70;;;;;;;28.61;57.76;99156.81;5043503;28;20284;-79
2022/07/30 11:38:57;;;;;;;4.13;3.65;;;;;;;28.86;57.41;99150.88;5042239;28;20225;-79
2022/07/30 11:41:32;;;;;;;3.70;3.40;;;;;;;28.97;55.07;99164.97;5044730;28;20317;-79
2022/07/30 11:44:25;;;;;;;3.88;3.58;;;;;;;28.82;57.37;99162.97;5042654;28;20232;-79
2022/07/30 11:46:52;;;;;;;3.80;3.50;;;;;;;28.49;56.10;99157.66;5043084;28;20275;-79
2022/07/30 11:49:18;;;;;;;3.78;3.47;;;;;;;28.52;56.37;99153.41;5041255;28;20321;-79
2022/07/30 11:51:46;;;;;;;3.63;3.30;;;;;;;28.61;55.08;99165.88;5043638;28;20241;-81
2022/07/30 11:54:14;;;;;;;3.97;3.67;;;;;;;28.57;55.43;99155.91;5046346;28;20236;-79
2022/07/30 11:56:52;;;;;;;3.88;3.58;;;;;;;28.68;54.61;99143.25;5041494;28;20308;-80